Time;durP1;ratioP1;P1;durP2;ratioP2;P2;SDS_P1;SDS_P2;PMS_P1;PMS_P2;Temp;Humidity;BMP_temperature;BMP_pressure;BME280_temperature;BME280_humidity;BME280_pressure;Samples;Min_cycle;Max_cycle;Signal;HPM_P1;HPM_P2
2022/08/19 00:00:32;;;;;;;;;24.00;23.50;;;;;;;;5011973;28;8814;-76
2022/08/19 00:02:59;;;;;;;;;17.25;17.00;;;;;;;;5010178;28;8922;-76
2022/08/19 00:05:27;;;;;;;;;17.25;17.25;;;;;;;;5013942;28;9661;-77
2022/08/19 00:07:55;;;;;;;;;17.50;17.50;;;;;;;;5014882;28;8888;-76
2022/08/19 00:10:23;;;;;;;;;18.75;18.25;;;;;;;;5015352;28;8908;-76
2022/08/19 00:12:51;;;;;;;;;16.50;15.50;;;;;;;;5014084;28;10316;-75
2022/08/19 00:15:23;;;;;;;;;15.75;14.50;;;;;;;;5010205;28;8884;-76
2022/08/19 00:17:50;;;;;;;;;19.00;17.75;;;;;;;;5030095;28;8846;-76
2022/08/19 00:20:20;;;;;;;;;18.25;15.25;;;;;;;;5033593;28;8893;-76
2022/08/19 00:22:48;;;;;;;;;23.75;18.50;;;;;;;;5034012;28;8977;-75
2022/08/19 00:25:18;;;;;;;;;15.50;14.50;;;;;;;;5017764;28;8881;-75
2022/08/19 00:27:45;;;;;;;;;19.00;19.00;;;;;;;;5033504;28;9038;-76
2022/08/19 00:30:13;;;;;;;;;24.75;22.50;;;;;;;;5022773;28;8911;-75
2022/08/19 00:32:40;;;;;;;;;16.75;16.75;;;;;;;;5017289;28;8949;-77
2022/08/19 00:35:09;;;;;;;;;24.50;23.00;;;;;;;;5021062;28;9644;-75
2022/08/19 00:37:36;;;;;;;;;19.50;14.50;;;;;;;;5021120;28;8886;-77
2022/08/19 00:40:06;;;;;;;;;17.50;17.00;;;;;;;;5022054;28;9595;-76
2022/08/19 00:42:35;;;;;;;;;22.75;18.00;;;;;;;;5000516;28;8854;-76
2022/08/19 00:45:03;;;;;;;;;22.75;21.25;;;;;;;;5020702;28;8852;-77
2022/08/19 00:47:30;;;;;;;;;17.00;16.50;;;;;;;;5018939;28;8967;-77
2022/08/19 00:49:59;;;;;;;;;24.50;17.25;;;;;;;;5017768;28;8981;-77
2022/08/19 00:52:31;;;;;;;;;19.50;18.25;;;;;;;;5022301;28;9632;-76
2022/08/19 00:54:59;;;;;;;;;18.50;18.50;;;;;;;;5020169;28;8877;-77
2022/08/19 00:57:30;;;;;;;;;22.25;22.25;;;;;;;;5024187;28;8858;-77
2022/08/19 00:59:59;;;;;;;;;23.50;21.25;;;;;;;;5022071;28;9012;-77
2022/08/19 01:02:28;;;;;;;;;22.75;22.75;;;;;;;;5004916;28;8822;-78
2022/08/19 01:04:56;;;;;;;;;21.50;21.50;;;;;;;;5017821;28;8879;-77
2022/08/19 01:07:23;;;;;;;;;25.75;23.50;;;;;;;;5003130;28;8870;-77
2022/08/19 01:09:51;;;;;;;;;24.25;23.25;;;;;;;;5019824;28;8878;-77
2022/08/19 01:12:18;;;;;;;;;17.75;16.00;;;;;;;;5019490;28;8893;-78
2022/08/19 01:14:46;;;;;;;;;26.75;23.50;;;;;;;;5025514;28;8860;-76
2022/08/19 01:17:18;;;;;;;;;22.75;22.75;;;;;;;;5016130;28;8866;-77
2022/08/19 01:19:47;;;;;;;;;27.50;24.25;;;;;;;;5017359;28;8854;-77
2022/08/19 01:22:23;;;;;;;;;18.00;18.00;;;;;;;;5015740;28;8864;-77
2022/08/19 01:24:53;;;;;;;;;21.25;19.75;;;;;;;;5015051;28;8900;-77
2022/08/19 01:27:20;;;;;;;;;24.25;24.25;;;;;;;;5020736;28;8842;-76
2022/08/19 01:29:48;;;;;;;;;29.50;25.75;;;;;;;;5014437;28;8870;-76
2022/08/19 01:32:19;;;;;;;;;22.50;20.75;;;;;;;;5017653;28;8855;-77
2022/08/19 01:34:47;;;;;;;;;23.75;22.50;;;;;;;;4996715;28;8876;-76
2022/08/19 01:37:15;;;;;;;;;25.25;24.50;;;;;;;;5023283;28;8992;-76
2022/08/19 01:39:43;;;;;;;;;21.50;21.50;;;;;;;;5003985;28;8903;-76
2022/08/19 01:42:12;;;;;;;;;27.25;22.50;;;;;;;;5019816;28;8882;-76
2022/08/19 01:44:40;;;;;;;;;24.33;24.00;;;;;;;;5021726;28;8879;-77
2022/08/19 01:47:09;;;;;;;;;22.75;20.00;;;;;;;;5014430;28;8959;-78
2022/08/19 01:49:37;;;;;;;;;27.33;26.00;;;;;;;;5021604;28;8894;-77
2022/08/19 01:52:06;;;;;;;;;26.00;26.00;;;;;;;;5015361;28;8966;-77
2022/08/19 01:54:34;;;;;;;;;21.75;21.75;;;;;;;;5018811;28;8947;-78
2022/08/19 01:57:06;;;;;;;;;24.00;24.00;;;;;;;;5022442;28;8948;-77
2022/08/19 01:59:36;;;;;;;;;24.75;23.25;;;;;;;;5018425;28;8949;-78
2022/08/19 02:02:04;;;;;;;;;25.75;25.75;;;;;;;;5022584;28;8798;-77
2022/08/19 02:04:31;;;;;;;;;23.50;22.75;;;;;;;;5017044;28;8879;-78
2022/08/19 02:06:59;;;;;;;;;26.75;24.00;;;;;;;;5020828;28;9674;-78
2022/08/19 02:09:26;;;;;;;;;21.75;21.75;;;;;;;;5016027;28;8930;-78
2022/08/19 02:11:54;;;;;;;;;17.25;17.25;;;;;;;;5019676;28;9640;-77
2022/08/19 02:14:21;;;;;;;;;25.25;21.25;;;;;;;;4997281;28;8871;-77
2022/08/19 02:16:52;;;;;;;;;27.75;24.75;;;;;;;;5017509;28;8899;-77
2022/08/19 02:19:20;;;;;;;;;24.25;23.25;;;;;;;;4998825;28;9701;-77
2022/08/19 02:21:47;;;;;;;;;26.67;26.00;;;;;;;;5018010;28;10190;-77
2022/08/19 02:24:14;;;;;;;;;23.00;22.75;;;;;;;;5018504;28;9046;-77
2022/08/19 02:26:41;;;;;;;;;25.50;25.50;;;;;;;;5017065;28;8892;-77
2022/08/19 02:29:09;;;;;;;;;24.25;22.75;;;;;;;;5019798;28;8862;-79
2022/08/19 02:31:36;;;;;;;;;17.00;17.00;;;;;;;;5020880;28;8959;-77
2022/08/19 02:34:05;;;;;;;;;25.75;25.00;;;;;;;;4999443;28;8874;-77
2022/08/19 02:36:35;;;;;;;;;23.00;22.00;;;;;;;;5019300;28;9317;-77
2022/08/19 02:39:01;;;;;;;;;26.50;24.75;;;;;;;;5017251;28;8886;-77
2022/08/19 02:41:31;;;;;;;;;29.25;27.25;;;;;;;;5018063;28;9571;-77
2022/08/19 02:44:01;;;;;;;;;24.75;23.25;;;;;;;;5014030;28;8878;-76
2022/08/19 02:46:32;;;;;;;;;27.00;27.00;;;;;;;;5019401;28;9003;-77
2022/08/19 02:49:04;;;;;;;;;29.50;26.00;;;;;;;;5019530;28;8830;-77
2022/08/19 02:51:35;;;;;;;;;24.00;21.50;;;;;;;;5017292;28;8972;-77
2022/08/19 02:54:04;;;;;;;;;18.75;17.00;;;;;;;;5019090;28;8879;-78
2022/08/19 02:56:31;;;;;;;;;27.00;24.50;;;;;;;;5014205;28;8875;-77
2022/08/19 02:58:59;;;;;;;;;19.00;17.50;;;;;;;;5003183;28;9627;-77
2022/08/19 03:01:28;;;;;;;;;25.00;23.50;;;;;;;;5016697;28;8808;-77
2022/08/19 03:03:56;;;;;;;;;26.50;26.50;;;;;;;;5018904;28;8981;-77
2022/08/19 03:06:24;;;;;;;;;28.00;24.75;;;;;;;;5018527;28;8873;-77
2022/08/19 03:08:53;;;;;;;;;23.00;22.50;;;;;;;;5016172;28;8892;-78
2022/08/19 03:11:22;;;;;;;;;21.25;20.50;;;;;;;;5015312;28;8915;-77
2022/08/19 03:13:50;;;;;;;;;23.75;22.75;;;;;;;;5012269;28;8884;-77
2022/08/19 03:16:18;;;;;;;;;23.00;22.50;;;;;;;;5015409;28;8909;-77
2022/08/19 03:18:45;;;;;;;;;24.50;21.50;;;;;;;;5015723;28;8886;-77
2022/08/19 03:21:16;;;;;;;;;22.75;22.75;;;;;;;;5019177;28;8909;-77
2022/08/19 03:23:44;;;;;;;;;23.25;23.25;;;;;;;;5019161;28;9662;-76
2022/08/19 03:26:14;;;;;;;;;27.50;22.75;;;;;;;;5015196;28;8898;-77
2022/08/19 03:28:42;;;;;;;;;23.00;22.75;;;;;;;;5015355;28;9683;-76
2022/08/19 03:31:11;;;;;;;;;21.50;19.50;;;;;;;;5017962;28;8827;-76
2022/08/19 03:33:40;;;;;;;;;25.00;23.75;;;;;;;;5019143;28;8867;-76
2022/08/19 03:36:10;;;;;;;;;25.00;20.25;;;;;;;;5019275;28;8827;-76
2022/08/19 03:38:39;;;;;;;;;27.75;22.00;;;;;;;;5020717;28;9635;-77
2022/08/19 03:41:09;;;;;;;;;20.50;20.50;;;;;;;;5016086;28;8953;-76
2022/08/19 03:43:39;;;;;;;;;20.00;20.00;;;;;;;;5012858;28;9423;-77
2022/08/19 03:46:08;;;;;;;;;18.00;16.75;;;;;;;;5016878;28;8862;-76
2022/08/19 03:48:36;;;;;;;;;22.50;22.50;;;;;;;;5010049;28;8877;-76
2022/08/19 03:51:05;;;;;;;;;19.50;19.50;;;;;;;;5018306;28;8860;-77
2022/08/19 03:53:36;;;;;;;;;22.50;19.00;;;;;;;;5013954;28;8866;-77
2022/08/19 03:56:06;;;;;;;;;18.50;16.00;;;;;;;;5020742;28;8985;-77
2022/08/19 03:58:34;;;;;;;;;22.25;20.00;;;;;;;;5016667;28;8898;-78
2022/08/19 04:01:02;;;;;;;;;18.25;17.25;;;;;;;;5015878;28;8821;-78
2022/08/19 04:03:30;;;;;;;;;21.50;19.75;;;;;;;;5019204;28;8981;-77
2022/08/19 04:05:57;;;;;;;;;21.25;19.75;;;;;;;;5012772;28;8844;-78
2022/08/19 04:08:24;;;;;;;;;20.00;19.50;;;;;;;;5022239;28;8882;-77
2022/08/19 04:10:52;;;;;;;;;17.75;16.50;;;;;;;;5016787;28;8892;-77
2022/08/19 04:13:19;;;;;;;;;21.00;19.50;;;;;;;;5021554;28;8878;-77
2022/08/19 04:15:47;;;;;;;;;20.25;20.25;;;;;;;;5018220;28;8856;-78
2022/08/19 04:18:16;;;;;;;;;20.25;18.25;;;;;;;;5021715;28;8866;-77
2022/08/19 04:20:45;;;;;;;;;19.00;16.75;;;;;;;;5021906;28;8856;-76
2022/08/19 04:23:13;;;;;;;;;18.00;18.00;;;;;;;;5020190;28;8874;-77
2022/08/19 04:25:42;;;;;;;;;20.50;20.25;;;;;;;;5022912;28;8879;-79
2022/08/19 04:28:10;;;;;;;;;25.25;23.00;;;;;;;;5023196;28;9389;-77
2022/08/19 04:30:42;;;;;;;;;26.25;22.75;;;;;;;;5024761;28;8799;-79
2022/08/19 04:33:10;;;;;;;;;18.75;18.75;;;;;;;;5021727;28;8878;-78
2022/08/19 04:35:40;;;;;;;;;25.75;22.25;;;;;;;;5023266;28;8991;-78
2022/08/19 04:38:08;;;;;;;;;20.50;20.00;;;;;;;;5022704;28;9604;-78
2022/08/19 04:43:25;;;;;;;;;25.00;22.00;;;;;;;;5021480;28;8851;-78
2022/08/19 04:45:52;;;;;;;;;18.00;16.50;;;;;;;;5021117;28;8878;-78
2022/08/19 04:48:25;;;;;;;;;21.25;18.75;;;;;;;;5023643;28;8996;-77
2022/08/19 04:50:57;;;;;;;;;20.25;19.50;;;;;;;;5021342;28;8890;-77
2022/08/19 04:53:28;;;;;;;;;16.00;15.00;;;;;;;;5021894;28;8943;-77
2022/08/19 04:55:56;;;;;;;;;15.25;15.25;;;;;;;;5024520;28;8934;-77
2022/08/19 04:58:23;;;;;;;;;15.00;14.75;;;;;;;;5004517;28;8888;-77
2022/08/19 05:00:51;;;;;;;;;18.50;18.50;;;;;;;;5019859;28;9645;-77
2022/08/19 05:03:18;;;;;;;;;19.75;18.25;;;;;;;;5003864;28;8882;-77
2022/08/19 05:05:48;;;;;;;;;20.25;18.50;;;;;;;;5020070;28;8876;-78
2022/08/19 05:08:20;;;;;;;;;23.75;22.50;;;;;;;;5019621;28;8929;-77
2022/08/19 05:10:48;;;;;;;;;16.75;16.75;;;;;;;;5022948;28;8917;-78
2022/08/19 05:13:17;;;;;;;;;20.00;18.00;;;;;;;;5023241;28;9698;-79
2022/08/19 05:15:44;;;;;;;;;17.00;16.00;;;;;;;;5021614;28;8901;-78
2022/08/19 05:23:44;;;;;;;;;17.75;17.00;;;;;;;;5017473;28;8850;-78
2022/08/19 05:26:11;;;;;;;;;19.00;16.50;;;;;;;;5015897;28;8875;-78
2022/08/19 05:28:38;;;;;;;;;18.00;14.25;;;;;;;;5014677;28;9758;-79
2022/08/19 05:31:05;;;;;;;;;20.50;15.75;;;;;;;;5013638;28;8827;-78
2022/08/19 05:33:33;;;;;;;;;19.00;19.00;;;;;;;;5015056;28;8996;-78
2022/08/19 05:36:00;;;;;;;;;21.50;20.00;;;;;;;;5018086;28;8866;-78
2022/08/19 05:38:28;;;;;;;;;16.00;12.25;;;;;;;;5018976;28;8879;-78
2022/08/19 05:40:57;;;;;;;;;28.75;21.00;;;;;;;;5020362;28;10198;-80
2022/08/19 05:43:25;;;;;;;;;18.75;18.00;;;;;;;;5022802;28;9703;-80
2022/08/19 05:45:52;;;;;;;;;22.00;17.75;;;;;;;;5023023;28;9651;-79
2022/08/19 05:48:20;;;;;;;;;16.75;14.00;;;;;;;;5023282;28;8854;-79
2022/08/19 05:50:50;;;;;;;;;18.75;18.75;;;;;;;;5019920;28;8901;-78
2022/08/19 05:53:17;;;;;;;;;11.00;11.00;;;;;;;;5017333;28;8885;-78
2022/08/19 05:55:44;;;;;;;;;19.50;17.75;;;;;;;;5017095;28;8848;-79
2022/08/19 05:58:13;;;;;;;;;19.00;16.75;;;;;;;;5024980;28;8859;-79
2022/08/19 06:00:40;;;;;;;;;16.25;16.25;;;;;;;;5021866;28;8873;-78
2022/08/19 06:03:08;;;;;;;;;19.25;19.25;;;;;;;;5022689;28;8870;-78
2022/08/19 06:05:38;;;;;;;;;20.75;18.75;;;;;;;;5019812;28;9641;-80
2022/08/19 06:08:07;;;;;;;;;17.00;17.00;;;;;;;;5012993;28;8965;-78
2022/08/19 06:10:35;;;;;;;;;20.25;18.75;;;;;;;;5015160;28;8842;-77
2022/08/19 06:13:02;;;;;;;;;18.50;17.50;;;;;;;;5020623;28;9722;-79
2022/08/19 06:15:31;;;;;;;;;12.75;12.75;;;;;;;;5023263;28;8854;-78
2022/08/19 06:17:59;;;;;;;;;18.00;15.75;;;;;;;;5019614;28;8875;-78
2022/08/19 06:20:26;;;;;;;;;19.50;19.50;;;;;;;;5020215;28;8899;-77
2022/08/19 06:22:54;;;;;;;;;21.00;18.50;;;;;;;;5003638;28;8892;-77
2022/08/19 06:25:21;;;;;;;;;19.00;19.00;;;;;;;;5020169;28;8872;-76
2022/08/19 06:27:48;;;;;;;;;13.75;13.75;;;;;;;;5022624;28;8901;-76
2022/08/19 06:30:18;;;;;;;;;14.00;14.00;;;;;;;;5020161;28;8908;-77
2022/08/19 06:32:49;;;;;;;;;15.75;15.00;;;;;;;;5020560;28;8871;-78
2022/08/19 06:35:17;;;;;;;;;16.75;15.75;;;;;;;;5019916;28;8877;-77
2022/08/19 06:37:44;;;;;;;;;18.00;17.25;;;;;;;;5021771;28;8968;-77
2022/08/19 06:40:12;;;;;;;;;11.75;11.75;;;;;;;;5017604;28;8898;-80
2022/08/19 06:42:40;;;;;;;;;14.00;13.75;;;;;;;;5000359;28;8922;-78
2022/08/19 06:45:08;;;;;;;;;17.50;13.75;;;;;;;;5019429;28;8850;-77
2022/08/19 06:47:36;;;;;;;;;14.50;14.50;;;;;;;;5016490;28;8878;-75
2022/08/19 06:50:06;;;;;;;;;17.00;15.50;;;;;;;;5018142;28;9637;-72
2022/08/19 06:52:35;;;;;;;;;11.50;10.75;;;;;;;;5021115;28;8955;-81
2022/08/19 06:55:04;;;;;;;;;13.50;13.50;;;;;;;;5016346;28;8958;-78
2022/08/19 06:57:32;;;;;;;;;11.00;11.00;;;;;;;;5022749;28;8866;-77
2022/08/19 07:00:00;;;;;;;;;13.00;12.50;;;;;;;;5014115;28;8907;-78
2022/08/19 07:02:28;;;;;;;;;15.50;13.50;;;;;;;;5005335;28;8820;-77
2022/08/19 07:04:57;;;;;;;;;11.00;11.00;;;;;;;;5016782;28;8864;-75
2022/08/19 07:07:26;;;;;;;;;18.25;13.75;;;;;;;;5017079;28;8859;-77
2022/08/19 07:09:53;;;;;;;;;18.75;16.75;;;;;;;;5018934;28;8923;-78
2022/08/19 07:12:21;;;;;;;;;14.50;14.25;;;;;;;;5019276;28;8886;-79
2022/08/19 07:14:49;;;;;;;;;15.25;15.25;;;;;;;;5018847;28;8898;-75
2022/08/19 07:17:18;;;;;;;;;11.25;11.25;;;;;;;;5017954;28;8884;-75
2022/08/19 07:19:45;;;;;;;;;19.25;16.75;;;;;;;;5022625;28;8874;-75
2022/08/19 07:22:12;;;;;;;;;15.75;13.50;;;;;;;;5019644;28;8876;-77
2022/08/19 07:24:41;;;;;;;;;16.25;12.25;;;;;;;;5021478;28;8875;-77
2022/08/19 07:27:09;;;;;;;;;18.25;16.75;;;;;;;;5016331;28;8954;-76
2022/08/19 07:29:37;;;;;;;;;19.00;16.00;;;;;;;;5019520;28;9691;-78
2022/08/19 07:32:05;;;;;;;;;13.25;11.50;;;;;;;;5014269;28;8816;-82
2022/08/19 07:34:37;;;;;;;;;14.50;13.00;;;;;;;;5017765;28;8910;-81
2022/08/19 07:37:05;;;;;;;;;12.50;12.50;;;;;;;;5020490;28;8868;-79
2022/08/19 07:39:34;;;;;;;;;10.75;10.25;;;;;;;;5018982;28;8994;-76
2022/08/19 07:42:07;;;;;;;;;11.50;11.50;;;;;;;;5023319;28;8976;-78
2022/08/19 07:44:34;;;;;;;;;12.25;12.00;;;;;;;;5022568;28;8898;-78
2022/08/19 07:47:03;;;;;;;;;11.75;11.75;;;;;;;;5025634;28;8899;-79
2022/08/19 07:49:31;;;;;;;;;14.00;13.50;;;;;;;;5024790;28;8887;-78
2022/08/19 07:52:03;;;;;;;;;9.75;9.75;;;;;;;;5025639;28;8978;-75
2022/08/19 07:54:34;;;;;;;;;11.00;11.00;;;;;;;;5024240;28;8844;-76
2022/08/19 07:57:04;;;;;;;;;12.25;11.00;;;;;;;;5023419;28;8998;-75
2022/08/19 07:59:31;;;;;;;;;8.75;8.75;;;;;;;;5022733;28;8887;-79
2022/08/19 08:02:00;;;;;;;;;11.75;10.25;;;;;;;;5023641;28;8892;-75
2022/08/19 08:09:57;;;;;;;;;8.60;8.60;;;;;;;;5017666;28;8868;-75
2022/08/19 08:12:30;;;;;;;;;8.80;8.80;;;;;;;;5025028;28;8902;-75
2022/08/19 08:15:01;;;;;;;;;9.80;9.20;;;;;;;;5023584;28;8887;-74
2022/08/19 08:17:30;;;;;;;;;10.00;8.50;;;;;;;;5025378;28;9662;-77
2022/08/19 08:19:58;;;;;;;;;9.00;7.60;;;;;;;;5020574;28;8912;-77
2022/08/19 08:25:12;;;;;;;;;6.00;6.00;;;;;;;;5021990;28;8974;-75
2022/08/19 08:27:43;;;;;;;;;10.20;7.40;;;;;;;;5021596;28;8888;-74
2022/08/19 08:30:13;;;;;;;;;10.40;7.20;;;;;;;;5022087;28;8888;-76
2022/08/19 08:32:41;;;;;;;;;8.20;6.80;;;;;;;;5019278;28;8863;-73
2022/08/19 08:35:11;;;;;;;;;6.80;6.80;;;;;;;;5020103;28;9022;-79
2022/08/19 08:37:39;;;;;;;;;6.40;6.20;;;;;;;;5020300;28;8868;-76
2022/08/19 08:40:10;;;;;;;;;6.40;6.00;;;;;;;;5023508;28;8974;-76
2022/08/19 08:42:46;;;;;;;;;5.00;5.00;;;;;;;;5026168;28;8852;-83
2022/08/19 08:45:16;;;;;;;;;8.00;8.00;;;;;;;;5020878;28;9668;-75
2022/08/19 08:47:48;;;;;;;;;6.80;6.80;;;;;;;;5024183;28;8883;-76
2022/08/19 08:50:19;;;;;;;;;6.20;6.20;;;;;;;;5022428;28;8912;-77
2022/08/19 08:52:50;;;;;;;;;7.40;5.80;;;;;;;;5023092;28;8856;-77
2022/08/19 08:55:20;;;;;;;;;8.00;6.20;;;;;;;;5021457;28;8880;-79
2022/08/19 08:57:55;;;;;;;;;6.00;6.00;;;;;;;;5023977;28;8912;-75
2022/08/19 09:00:26;;;;;;;;;6.80;5.80;;;;;;;;5021039;28;8903;-75
2022/08/19 09:02:54;;;;;;;;;5.00;4.00;;;;;;;;5020959;28;8884;-80
2022/08/19 09:05:22;;;;;;;;;4.60;3.20;;;;;;;;5021810;28;8876;-83
2022/08/19 09:07:57;;;;;;;;;4.80;4.80;;;;;;;;5021228;28;8860;-74
2022/08/19 09:10:31;;;;;;;;;5.40;4.80;;;;;;;;5023704;28;8868;-74
2022/08/19 09:13:06;;;;;;;;;4.60;4.00;;;;;;;;5020874;28;8938;-74
2022/08/19 09:15:37;;;;;;;;;6.00;6.00;;;;;;;;5021715;28;8868;-74
2022/08/19 09:18:06;;;;;;;;;2.00;2.00;;;;;;;;5023916;28;8872;-74
2022/08/19 09:20:33;;;;;;;;;5.80;4.00;;;;;;;;5021376;28;8969;-75
2022/08/19 09:23:01;;;;;;;;;5.00;5.00;;;;;;;;5022156;28;8890;-74
2022/08/19 09:25:28;;;;;;;;;3.00;3.00;;;;;;;;5022738;28;8860;-76
2022/08/19 09:27:57;;;;;;;;;4.80;4.00;;;;;;;;5019109;28;8892;-75
2022/08/19 09:30:27;;;;;;;;;5.40;3.80;;;;;;;;5021493;28;8776;-75
2022/08/19 09:32:55;;;;;;;;;2.80;2.80;;;;;;;;5022395;28;9019;-75
2022/08/19 09:35:26;;;;;;;;;3.40;3.40;;;;;;;;5022014;28;8914;-75
2022/08/19 09:37:54;;;;;;;;;3.00;3.00;;;;;;;;5021460;28;8922;-75
2022/08/19 09:40:21;;;;;;;;;5.00;3.40;;;;;;;;5022173;28;8880;-75
2022/08/19 09:42:49;;;;;;;;;3.00;3.00;;;;;;;;5020888;28;9765;-75
2022/08/19 09:45:16;;;;;;;;;3.60;3.60;;;;;;;;5022847;28;9654;-76
2022/08/19 09:47:45;;;;;;;;;2.40;2.40;;;;;;;;5022778;28;8848;-75
2022/08/19 09:50:13;;;;;;;;;2.00;2.00;;;;;;;;5022593;28;8876;-75
2022/08/19 09:52:42;;;;;;;;;3.40;3.40;;;;;;;;5022659;28;9010;-76
2022/08/19 09:55:10;;;;;;;;;1.00;1.00;;;;;;;;5022259;28;8891;-75
2022/08/19 09:57:38;;;;;;;;;5.00;4.00;;;;;;;;5023869;28;8898;-75
2022/08/19 10:00:07;;;;;;;;;3.60;3.60;;;;;;;;5022288;28;8864;-76
2022/08/19 10:02:34;;;;;;;;;3.60;3.60;;;;;;;;5021382;28;8910;-75
2022/08/19 10:07:48;;;;;;;;;3.40;3.40;;;;;;;;5022114;28;8876;-76
2022/08/19 10:10:17;;;;;;;;;4.00;4.00;;;;;;;;5023969;28;8884;-76
2022/08/19 10:12:47;;;;;;;;;4.00;4.00;;;;;;;;5020529;28;8953;-76
2022/08/19 10:15:15;;;;;;;;;4.00;4.00;;;;;;;;5022271;28;8894;-76
2022/08/19 10:17:42;;;;;;;;;5.40;5.40;;;;;;;;5022496;28;8890;-76
2022/08/19 10:20:12;;;;;;;;;5.40;4.00;;;;;;;;5022323;28;8891;-76
2022/08/19 10:22:41;;;;;;;;;2.60;2.60;;;;;;;;5022106;28;8864;-77
2022/08/19 10:25:09;;;;;;;;;5.00;5.00;;;;;;;;5019253;28;8876;-76
2022/08/19 10:27:36;;;;;;;;;5.20;4.80;;;;;;;;5022335;28;8883;-76
2022/08/19 10:30:05;;;;;;;;;4.00;4.00;;;;;;;;5020206;28;8895;-77
2022/08/19 10:32:32;;;;;;;;;3.00;3.00;;;;;;;;5022746;28;8910;-76
2022/08/19 10:35:00;;;;;;;;;3.80;3.80;;;;;;;;5022011;28;9007;-76
2022/08/19 10:37:30;;;;;;;;;5.60;5.60;;;;;;;;5022488;28;8918;-76
2022/08/19 10:39:57;;;;;;;;;5.00;3.00;;;;;;;;5023472;28;8860;-76
2022/08/19 10:42:24;;;;;;;;;2.60;2.60;;;;;;;;5020069;28;8879;-76
2022/08/19 10:44:52;;;;;;;;;2.80;2.80;;;;;;;;5022231;28;8876;-76
2022/08/19 10:47:20;;;;;;;;;6.20;6.20;;;;;;;;5021281;28;8913;-76
2022/08/19 10:52:36;;;;;;;;;6.00;6.00;;;;;;;;5021238;28;8967;-76
2022/08/19 10:57:52;;;;;;;;;4.80;4.80;;;;;;;;5021688;28;8884;-76
2022/08/19 11:00:22;;;;;;;;;3.80;3.80;;;;;;;;5020633;28;8894;-75
2022/08/19 11:02:50;;;;;;;;;3.40;3.40;;;;;;;;5021875;28;8926;-76
2022/08/19 11:05:18;;;;;;;;;5.60;3.80;;;;;;;;5021329;28;8880;-76
2022/08/19 11:07:47;;;;;;;;;3.00;3.00;;;;;;;;5022024;28;9731;-75
2022/08/19 11:10:18;;;;;;;;;3.60;2.40;;;;;;;;5020314;28;8855;-76
2022/08/19 11:12:48;;;;;;;;;3.00;3.00;;;;;;;;5020970;28;8992;-77
2022/08/19 11:15:15;;;;;;;;;3.80;2.00;;;;;;;;5022432;28;8864;-76
2022/08/19 11:17:43;;;;;;;;;5.00;2.00;;;;;;;;5020978;28;8898;-77
2022/08/19 11:20:12;;;;;;;;;2.00;2.00;;;;;;;;5022561;28;8872;-76
2022/08/19 11:22:40;;;;;;;;;2.00;2.00;;;;;;;;5020657;28;8947;-76
2022/08/19 11:25:11;;;;;;;;;3.20;2.00;;;;;;;;5021185;28;8894;-76
2022/08/19 11:27:41;;;;;;;;;1.20;1.20;;;;;;;;5021711;28;8844;-76
2022/08/19 11:30:09;;;;;;;;;3.60;2.00;;;;;;;;5020828;28;9626;-76
2022/08/19 11:32:37;;;;;;;;;2.00;2.00;;;;;;;;5021928;28;9384;-76
2022/08/19 11:35:04;;;;;;;;;1.00;1.00;;;;;;;;5020510;28;8872;-76
2022/08/19 11:37:38;;;;;;;;;1.00;1.00;;;;;;;;5021979;28;8884;-75
2022/08/19 11:40:09;;;;;;;;;1.00;1.00;;;;;;;;5021776;28;8974;-75
2022/08/19 11:45:21;;;;;;;;;0.00;0.00;;;;;;;;5018946;28;8860;-75
2022/08/19 11:47:48;;;;;;;;;1.60;1.00;;;;;;;;5020930;28;8919;-76
2022/08/19 11:50:17;;;;;;;;;1.00;1.00;;;;;;;;5021914;28;8930;-76
2022/08/19 11:52:44;;;;;;;;;1.00;1.00;;;;;;;;5020459;28;8864;-76
2022/08/19 11:55:14;;;;;;;;;1.00;1.00;;;;;;;;5021634;28;8918;-76
2022/08/19 11:57:43;;;;;;;;;0.40;0.40;;;;;;;;5021798;28;8858;-76
2022/08/19 12:00:12;;;;;;;;;1.00;1.00;;;;;;;;5020512;28;8902;-76
2022/08/19 12:02:40;;;;;;;;;0.40;0.40;;;;;;;;5022123;28;8969;-76
2022/08/19 12:05:08;;;;;;;;;0.40;0.40;;;;;;;;5019066;28;8872;-77
2022/08/19 12:07:36;;;;;;;;;2.20;0.80;;;;;;;;5022366;28;8880;-76
2022/08/19 12:10:03;;;;;;;;;1.00;1.00;;;;;;;;5019582;28;8888;-76
2022/08/19 12:12:32;;;;;;;;;0.00;0.00;;;;;;;;5022280;28;8884;-76
2022/08/19 12:14:59;;;;;;;;;0.60;0.60;;;;;;;;5020172;28;9686;-77
2022/08/19 12:17:28;;;;;;;;;0.80;0.80;;;;;;;;5021440;28;8892;-76
2022/08/19 12:19:56;;;;;;;;;0.00;0.00;;;;;;;;5020355;28;8851;-77
2022/08/19 12:22:24;;;;;;;;;2.00;0.00;;;;;;;;5018765;28;9010;-77
2022/08/19 12:24:53;;;;;;;;;0.00;0.00;;;;;;;;5022493;28;8864;-77
2022/08/19 12:27:21;;;;;;;;;0.00;0.00;;;;;;;;5024300;28;8998;-77
2022/08/19 12:29:50;;;;;;;;;0.00;0.00;;;;;;;;5023569;28;8886;-76
2022/08/19 12:32:18;;;;;;;;;0.60;0.60;;;;;;;;5024410;28;8812;-77
2022/08/19 12:34:47;;;;;;;;;0.40;0.40;;;;;;;;5024836;28;8864;-76
2022/08/19 12:37:14;;;;;;;;;0.40;0.40;;;;;;;;5025519;28;8875;-76
2022/08/19 12:39:43;;;;;;;;;1.20;0.80;;;;;;;;5024234;28;8876;-77
2022/08/19 12:42:11;;;;;;;;;1.00;1.00;;;;;;;;5025658;28;9825;-76
2022/08/19 12:44:41;;;;;;;;;2.00;1.00;;;;;;;;5022902;28;8884;-75
2022/08/19 12:47:11;;;;;;;;;0.80;0.80;;;;;;;;5024575;28;8888;-74
2022/08/19 12:49:39;;;;;;;;;3.20;1.00;;;;;;;;5024005;28;8901;-75
2022/08/19 12:52:08;;;;;;;;;1.00;1.00;;;;;;;;5024573;28;8895;-75
2022/08/19 12:54:35;;;;;;;;;1.40;1.00;;;;;;;;5024056;28;8860;-75
2022/08/19 12:57:07;;;;;;;;;0.80;0.80;;;;;;;;5023687;28;8860;-75
2022/08/19 12:59:36;;;;;;;;;0.00;0.00;;;;;;;;5025486;28;8895;-76
2022/08/19 13:02:05;;;;;;;;;0.40;0.40;;;;;;;;5036603;28;8867;-77
2022/08/19 13:04:35;;;;;;;;;2.60;0.80;;;;;;;;5041091;28;9619;-75
2022/08/19 13:07:03;;;;;;;;;0.60;0.60;;;;;;;;5043204;28;8938;-75
2022/08/19 13:09:30;;;;;;;;;2.80;1.60;;;;;;;;5044896;28;8995;-77
2022/08/19 13:11:58;;;;;;;;;2.00;2.00;;;;;;;;5027035;28;8879;-77
2022/08/19 13:14:25;;;;;;;;;1.00;1.00;;;;;;;;5025709;28;8874;-75
2022/08/19 13:16:53;;;;;;;;;0.60;0.60;;;;;;;;5044626;28;8891;-76
2022/08/19 13:19:22;;;;;;;;;1.40;1.40;;;;;;;;5042992;28;8897;-76
2022/08/19 13:21:53;;;;;;;;;2.40;0.80;;;;;;;;5025071;28;8893;-76
2022/08/19 13:24:20;;;;;;;;;1.00;1.00;;;;;;;;5042781;28;8882;-76
2022/08/19 13:26:48;;;;;;;;;1.00;1.00;;;;;;;;5026235;28;8924;-76
2022/08/19 13:34:46;;;;;;;;;0.60;0.60;;;;;;;;5043203;28;8961;-76
2022/08/19 13:37:15;;;;;;;;;0.60;0.60;;;;;;;;5042988;28;8873;-78
2022/08/19 13:39:42;;;;;;;;;1.60;1.60;;;;;;;;5044552;28;8944;-76
2022/08/19 13:42:10;;;;;;;;;0.00;0.00;;;;;;;;5026200;28;9648;-76
2022/08/19 13:44:37;;;;;;;;;0.40;0.40;;;;;;;;5042449;28;8859;-76
2022/08/19 13:47:07;;;;;;;;;1.00;1.00;;;;;;;;5043781;28;8897;-75
2022/08/19 13:49:36;;;;;;;;;0.80;0.80;;;;;;;;5041277;28;8874;-76
2022/08/19 13:52:05;;;;;;;;;1.80;1.80;;;;;;;;5043255;28;8862;-76
2022/08/19 13:54:33;;;;;;;;;0.80;0.80;;;;;;;;5041735;28;9711;-76
2022/08/19 13:57:01;;;;;;;;;3.20;0.80;;;;;;;;5026192;28;8886;-76
2022/08/19 13:59:28;;;;;;;;;0.00;0.00;;;;;;;;5042910;28;8912;-75
2022/08/19 14:02:00;;;;;;;;;0.00;0.00;;;;;;;;5042341;28;8964;-76
2022/08/19 14:04:28;;;;;;;;;0.60;0.60;;;;;;;;5025620;28;8839;-75
2022/08/19 14:06:55;;;;;;;;;0.00;0.00;;;;;;;;5039160;28;9600;-76
2022/08/19 14:09:23;;;;;;;;;0.00;0.00;;;;;;;;5043918;28;8916;-76
2022/08/19 14:11:52;;;;;;;;;0.20;0.20;;;;;;;;5026785;28;8870;-75
2022/08/19 14:14:19;;;;;;;;;0.40;0.00;;;;;;;;5042772;28;8993;-75
2022/08/19 14:16:46;;;;;;;;;0.40;0.40;;;;;;;;5043075;28;8867;-75
2022/08/19 14:19:14;;;;;;;;;0.20;0.20;;;;;;;;5043608;28;8886;-75
2022/08/19 14:21:41;;;;;;;;;0.40;0.40;;;;;;;;5041499;28;8888;-76
2022/08/19 14:24:09;;;;;;;;;0.60;0.60;;;;;;;;5041892;28;8874;-75
2022/08/19 14:26:36;;;;;;;;;0.00;0.00;;;;;;;;5043416;28;8890;-76
2022/08/19 14:29:04;;;;;;;;;0.60;0.60;;;;;;;;5042672;28;9555;-76
2022/08/19 14:31:32;;;;;;;;;0.00;0.00;;;;;;;;5041660;28;8833;-76
2022/08/19 14:33:59;;;;;;;;;0.40;0.40;;;;;;;;5040822;28;8874;-76
2022/08/19 14:36:27;;;;;;;;;0.80;0.80;;;;;;;;5042165;28;9751;-76
2022/08/19 14:38:54;;;;;;;;;1.60;1.60;;;;;;;;5043224;28;9616;-77
2022/08/19 14:41:23;;;;;;;;;0.80;0.80;;;;;;;;5041832;28;8890;-76
2022/08/19 14:43:52;;;;;;;;;0.80;0.80;;;;;;;;5042248;28;9436;-75
2022/08/19 14:46:24;;;;;;;;;0.80;0.80;;;;;;;;5040902;28;8895;-77
2022/08/19 14:48:52;;;;;;;;;2.40;0.80;;;;;;;;5042470;28;8862;-76
2022/08/19 14:51:21;;;;;;;;;1.20;1.20;;;;;;;;5041259;28;9013;-76
2022/08/19 14:53:49;;;;;;;;;0.40;0.40;;;;;;;;5041673;28;8902;-76
2022/08/19 14:56:19;;;;;;;;;1.80;1.80;;;;;;;;5042385;28;8877;-77
2022/08/19 14:58:47;;;;;;;;;1.40;1.40;;;;;;;;5041680;28;8873;-76
2022/08/19 15:01:14;;;;;;;;;2.40;1.00;;;;;;;;5041890;28;8795;-76
2022/08/19 15:03:44;;;;;;;;;1.20;1.20;;;;;;;;5040667;28;8878;-76
2022/08/19 15:06:11;;;;;;;;;1.00;1.00;;;;;;;;5041256;28;8908;-77
2022/08/19 15:08:40;;;;;;;;;1.00;1.00;;;;;;;;5041745;28;8882;-77
2022/08/19 15:11:10;;;;;;;;;1.00;1.00;;;;;;;;5042240;28;8901;-77
2022/08/19 15:13:37;;;;;;;;;0.60;0.60;;;;;;;;5041713;28;8858;-78
2022/08/19 15:16:05;;;;;;;;;2.20;1.00;;;;;;;;5041177;28;8909;-77
2022/08/19 15:18:32;;;;;;;;;1.00;1.00;;;;;;;;5042344;28;8912;-77
2022/08/19 15:21:01;;;;;;;;;0.40;0.40;;;;;;;;5028427;28;8847;-76
2022/08/19 15:23:28;;;;;;;;;1.00;1.00;;;;;;;;5041488;28;9642;-78